Time;durP1;ratioP1;P1;durP2;ratioP2;P2;SDS_P1;SDS_P2;PMS_P1;PMS_P2;Temp;Humidity;BMP_temperature;BMP_pressure;BME280_temperature;BME280_humidity;BME280_pressure;Samples;Min_cycle;Max_cycle;Signal;HPM_P1;HPM_P2
2021/01/22 00:01:56;;;;;;;2.90;2.10;;;21.90;51.10;;;;;;5073906;28;20178;-66
2021/01/22 00:04:21;;;;;;;2.47;1.93;;;21.80;51.00;;;;;;5073997;28;20171;-66
2021/01/22 00:06:47;;;;;;;2.10;1.73;;;21.80;51.00;;;;;;5074154;28;20488;-66
2021/01/22 00:09:12;;;;;;;2.27;1.87;;;21.80;51.00;;;;;;5073885;28;20692;-66
2021/01/22 00:11:38;;;;;;;2.23;2.03;;;21.80;51.00;;;;;;5073602;28;20233;-66
2021/01/22 00:14:04;;;;;;;3.90;2.00;;;21.80;51.00;;;;;;5073628;28;20549;-66
2021/01/22 00:16:30;;;;;;;3.60;2.47;;;21.80;51.00;;;;;;5073965;28;20162;-66
2021/01/22 00:18:55;;;;;;;2.50;1.93;;;21.80;51.00;;;;;;5073631;28;20227;-66
2021/01/22 00:21:21;;;;;;;3.20;2.00;;;21.80;51.00;;;;;;5073209;28;20440;-66
2021/01/22 00:23:46;;;;;;;3.77;1.87;;;21.80;51.00;;;;;;5073533;28;20556;-65
2021/01/22 00:26:12;;;;;;;2.70;1.90;;;21.90;51.10;;;;;;5073590;28;20178;-66
2021/01/22 00:28:37;;;;;;;3.10;2.27;;;21.80;51.00;;;;;;5073755;28;20648;-66
2021/01/22 00:31:03;;;;;;;3.03;1.80;;;21.80;51.00;;;;;;5073411;28;20178;-66
2021/01/22 00:33:29;;;;;;;2.23;1.47;;;21.80;51.00;;;;;;5072151;28;20218;-66
2021/01/22 00:35:54;;;;;;;2.33;1.87;;;21.80;51.00;;;;;;5073453;28;20220;-66
2021/01/22 00:38:20;;;;;;;2.63;2.17;;;21.80;51.00;;;;;;5072156;28;20178;-66
2021/01/22 00:40:46;;;;;;;3.30;1.70;;;21.80;51.00;;;;;;5073445;28;20171;-66
2021/01/22 00:43:11;;;;;;;2.47;1.83;;;21.80;51.00;;;;;;5073497;28;20248;-65
2021/01/22 00:45:37;;;;;;;2.67;2.00;;;21.80;51.10;;;;;;5073571;28;20261;-66
2021/01/22 00:48:03;;;;;;;3.10;1.93;;;21.80;51.00;;;;;;5073246;28;20266;-66
2021/01/22 00:50:28;;;;;;;3.00;1.73;;;21.80;51.00;;;;;;5073443;28;20618;-64
2021/01/22 00:52:54;;;;;;;3.70;1.80;;;21.80;51.00;;;;;;5073052;28;20284;-66
2021/01/22 00:55:20;;;;;;;2.17;1.50;;;21.80;51.10;;;;;;5071907;28;20178;-66
2021/01/22 00:57:45;;;;;;;2.30;1.90;;;21.80;51.00;;;;;;5073363;28;20171;-66
2021/01/22 01:00:13;;;;;;;1.90;1.60;;;21.80;51.00;;;;;;5073392;28;20174;-66
2021/01/22 01:02:38;;;;;;;2.80;1.63;;;21.80;51.10;;;;;;5072992;28;20197;-65
2021/01/22 01:05:05;;;;;;;2.67;1.60;;;21.80;51.00;;;;;;5073025;28;20417;-65
2021/01/22 01:07:30;;;;;;;1.87;1.50;;;21.80;51.00;;;;;;5073027;28;20201;-66
2021/01/22 01:09:56;;;;;;;2.70;1.90;;;21.70;50.90;;;;;;5071774;28;20417;-66
2021/01/22 01:12:22;;;;;;;4.47;2.10;;;21.80;51.00;;;;;;5072689;28;20213;-66
2021/01/22 01:14:47;;;;;;;3.47;2.30;;;21.80;51.00;;;;;;5072956;28;20182;-66
2021/01/22 01:17:13;;;;;;;1.70;1.47;;;21.70;51.00;;;;;;5072947;28;20540;-66
2021/01/22 01:19:38;;;;;;;2.40;1.67;;;21.80;51.00;;;;;;5072950;28;20170;-66
2021/01/22 01:22:04;;;;;;;1.87;1.40;;;21.70;50.90;;;;;;5072821;28;20174;-66
2021/01/22 01:24:30;;;;;;;4.83;2.10;;;21.80;51.10;;;;;;5073178;28;20641;-66
2021/01/22 01:26:55;;;;;;;1.97;1.77;;;21.70;50.90;;;;;;5072936;28;20211;-66
2021/01/22 01:29:21;;;;;;;2.33;1.70;;;21.70;50.90;;;;;;5072813;28;20209;-66
2021/01/22 01:31:46;;;;;;;3.30;1.60;;;21.70;51.00;;;;;;5072649;28;20695;-66
2021/01/22 01:34:12;;;;;;;2.10;1.20;;;21.70;51.00;;;;;;5075399;28;20237;-66
2021/01/22 01:36:38;;;;;;;3.30;1.87;;;21.70;51.00;;;;;;5076783;28;20625;-66
2021/01/22 01:39:04;;;;;;;2.63;1.63;;;21.70;51.00;;;;;;5076763;28;20544;-66
2021/01/22 01:41:29;;;;;;;2.80;1.63;;;21.70;51.00;;;;;;5076666;28;20257;-66
2021/01/22 01:43:55;;;;;;;3.50;1.87;;;21.70;51.00;;;;;;5076621;28;20520;-66
2021/01/22 01:46:21;;;;;;;2.37;1.60;;;21.70;51.00;;;;;;5076846;28;20181;-66
2021/01/22 01:48:47;;;;;;;3.07;1.60;;;21.70;51.00;;;;;;5076854;28;20170;-66
2021/01/22 01:51:12;;;;;;;2.90;1.90;;;21.70;50.90;;;;;;5076615;28;20581;-66
2021/01/22 01:56:55;;;;;;;2.70;1.40;;;21.70;50.90;;;;;;3343790;26;20258;-84
2021/01/22 01:59:21;;;;;;;2.17;1.33;;;21.70;51.00;;;;;;5027240;28;20439;-84
2021/01/22 02:01:48;;;;;;;2.43;1.87;;;21.60;50.90;;;;;;5029183;28;20538;-84
2021/01/22 02:04:14;;;;;;;1.90;1.40;;;21.60;50.90;;;;;;5010801;28;20173;-84
2021/01/22 02:06:40;;;;;;;1.77;1.20;;;21.60;51.00;;;;;;5019246;28;20438;-83
2021/01/22 02:09:07;;;;;;;3.00;1.50;;;21.60;51.00;;;;;;5033412;28;20434;-84
2021/01/22 02:11:35;;;;;;;2.03;1.50;;;21.60;51.10;;;;;;5030610;28;20263;-84
2021/01/22 02:14:02;;;;;;;2.17;1.43;;;21.60;51.10;;;;;;5032728;28;20450;-84
2021/01/22 02:16:30;;;;;;;2.23;1.47;;;21.60;51.10;;;;;;5032364;28;20414;-84
2021/01/22 02:18:57;;;;;;;2.40;1.67;;;21.60;51.10;;;;;;5031738;28;20407;-84
2021/01/22 02:21:28;;;;;;;2.30;1.63;;;21.60;51.10;;;;;;5033688;28;20415;-84
2021/01/22 02:24:05;;;;;;;1.93;1.70;;;21.60;51.10;;;;;;5030930;28;20437;-84
2021/01/22 02:26:56;;;;;;;2.53;1.50;;;21.60;51.10;;;;;;5030162;28;20387;-84
2021/01/22 02:29:23;;;;;;;2.23;1.60;;;21.60;51.10;;;;;;5029520;28;20768;-84
2021/01/22 02:31:52;;;;;;;2.70;1.53;;;21.50;51.10;;;;;;5027904;28;20465;-84
2021/01/22 02:34:25;;;;;;;1.77;1.30;;;21.60;51.20;;;;;;5028432;28;20411;-84
2021/01/22 02:36:57;;;;;;;2.40;1.60;;;21.60;51.20;;;;;;5028805;28;20407;-83
2021/01/22 02:39:26;;;;;;;2.83;1.70;;;21.50;51.20;;;;;;5028790;28;20861;-83
2021/01/22 02:41:56;;;;;;;2.00;1.40;;;21.50;51.10;;;;;;5029279;28;20936;-83
2021/01/22 02:44:22;;;;;;;1.90;1.30;;;21.50;51.10;;;;;;5028451;28;20415;-84
2021/01/22 02:46:48;;;;;;;1.83;1.23;;;21.50;51.10;;;;;;5031251;28;20475;-83
2021/01/22 02:49:14;;;;;;;2.30;1.37;;;21.60;51.10;;;;;;5033775;28;20415;-83
2021/01/22 02:51:45;;;;;;;1.60;1.20;;;21.60;51.10;;;;;;5027620;28;20200;-83
2021/01/22 02:54:11;;;;;;;1.57;1.27;;;21.60;51.10;;;;;;5031403;28;20191;-83
2021/01/22 02:57:00;;;;;;;2.93;1.40;;;21.60;51.10;;;;;;5031786;28;20482;-84
2021/01/22 02:59:52;;;;;;;2.73;1.53;;;21.60;51.00;;;;;;5028257;28;20184;-84
2021/01/22 03:02:44;;;;;;;2.90;1.53;;;21.60;51.00;;;;;;5031780;28;20395;-84
2021/01/22 03:05:14;;;;;;;3.73;1.83;;;21.60;51.10;;;;;;5027759;28;20427;-83
2021/01/22 03:07:47;;;;;;;2.00;1.50;;;21.60;51.10;;;;;;5027929;28;20435;-84
2021/01/22 03:10:19;;;;;;;1.90;1.33;;;21.60;51.10;;;;;;5028278;28;20395;-84
2021/01/22 03:12:47;;;;;;;1.90;1.50;;;21.60;51.10;;;;;;5027189;28;20455;-84
2021/01/22 03:15:15;;;;;;;3.13;1.80;;;21.60;51.60;;;;;;5027711;28;20418;-84
2021/01/22 03:17:42;;;;;;;2.47;1.60;;;21.60;51.10;;;;;;5027524;28;20423;-84
2021/01/22 03:20:10;;;;;;;1.87;1.20;;;21.60;51.10;;;;;;5026808;28;20446;-84
2021/01/22 03:22:35;;;;;;;2.40;1.60;;;21.60;51.10;;;;;;5027306;28;20518;-84
2021/01/22 03:25:01;;;;;;;1.60;1.43;;;21.60;51.10;;;;;;5026897;28;20946;-83
2021/01/22 03:27:27;;;;;;;1.87;1.50;;;21.60;51.10;;;;;;5032078;28;20184;-83
2021/01/22 03:29:53;;;;;;;3.03;1.50;;;21.60;51.10;;;;;;5031043;28;20427;-84
2021/01/22 03:32:19;;;;;;;2.40;1.33;;;21.60;51.00;;;;;;5029409;28;20219;-84
2021/01/22 03:34:44;;;;;;;1.93;1.37;;;21.60;51.00;;;;;;5033064;28;20164;-84
2021/01/22 03:37:10;;;;;;;2.00;1.40;;;21.60;51.00;;;;;;5028814;28;20188;-85
2021/01/22 03:39:36;;;;;;;1.70;1.10;;;21.60;51.10;;;;;;5029642;28;20244;-85
2021/01/22 03:42:03;;;;;;;1.70;1.20;;;21.60;51.00;;;;;;5032094;28;20211;-85
2021/01/22 03:44:29;;;;;;;1.83;1.30;;;21.60;51.00;;;;;;5028267;28;20196;-84
2021/01/22 03:46:55;;;;;;;1.63;1.23;;;21.60;51.00;;;;;;5028386;28;20438;-84
2021/01/22 03:49:20;;;;;;;1.70;1.40;;;21.60;51.00;;;;;;5028387;28;20207;-85
2021/01/22 03:51:46;;;;;;;1.40;1.17;;;21.50;50.90;;;;;;5028680;28;20219;-84
2021/01/22 03:54:12;;;;;;;2.03;1.47;;;21.60;50.90;;;;;;5028047;28;20203;-84
2021/01/22 03:56:38;;;;;;;1.80;1.40;;;21.60;50.90;;;;;;5015984;28;20185;-85
2021/01/22 03:59:04;;;;;;;1.40;1.00;;;21.60;50.90;;;;;;5008234;28;20207;-85
2021/01/22 04:01:31;;;;;;;2.40;1.00;;;21.60;51.00;;;;;;5008148;28;20185;-84
2021/01/22 04:03:57;;;;;;;2.07;1.30;;;21.60;51.00;;;;;;5013849;28;20180;-85
2021/01/22 04:06:23;;;;;;;1.40;1.00;;;21.60;50.90;;;;;;5028727;28;20427;-85
2021/01/22 04:08:49;;;;;;;2.77;1.40;;;21.50;50.90;;;;;;5031977;28;20453;-85
2021/01/22 04:11:15;;;;;;;1.70;1.20;;;21.50;50.90;;;;;;5028602;28;20200;-85
2021/01/22 04:13:41;;;;;;;1.90;1.30;;;21.50;50.90;;;;;;5029829;28;20415;-85
2021/01/22 04:16:07;;;;;;;1.90;1.30;;;21.50;50.90;;;;;;5032169;28;20418;-85
2021/01/22 04:18:32;;;;;;;2.03;1.40;;;21.50;51.50;;;;;;5026684;28;20176;-85
2021/01/22 04:20:58;;;;;;;1.70;1.30;;;21.50;50.90;;;;;;5030805;28;20241;-85
2021/01/22 04:23:24;;;;;;;1.80;1.57;;;21.50;50.90;;;;;;5030125;28;20238;-85
2021/01/22 04:25:50;;;;;;;2.20;1.30;;;21.50;51.60;;;;;;5028661;28;20179;-85
2021/01/22 04:28:16;;;;;;;1.67;1.20;;;21.50;50.90;;;;;;5028605;28;20176;-85
2021/01/22 04:30:42;;;;;;;1.67;1.27;;;21.50;50.90;;;;;;5026607;28;20168;-85
2021/01/22 04:33:07;;;;;;;1.53;1.27;;;21.50;50.90;;;;;;5028286;28;20189;-85
2021/01/22 04:35:33;;;;;;;1.33;1.20;;;21.50;50.90;;;;;;5027578;28;20484;-85
2021/01/22 04:37:59;;;;;;;1.50;1.10;;;21.50;50.90;;;;;;5026260;28;20183;-85
2021/01/22 04:40:26;;;;;;;1.77;1.23;;;21.40;50.80;;;;;;5026302;28;20173;-85
2021/01/22 04:42:52;;;;;;;1.60;1.30;;;21.50;50.90;;;;;;5026895;28;20438;-85
2021/01/22 04:45:18;;;;;;;1.40;1.20;;;21.50;50.80;;;;;;5029098;28;20415;-85
2021/01/22 04:47:44;;;;;;;1.60;1.30;;;21.50;50.90;;;;;;5030834;28;20420;-84
2021/01/22 04:50:11;;;;;;;1.50;1.10;;;21.50;50.90;;;;;;5030048;28;20422;-84
2021/01/22 04:52:38;;;;;;;1.40;0.97;;;21.50;50.80;;;;;;5027128;28;20199;-84
2021/01/22 04:55:06;;;;;;;2.17;1.23;;;21.50;50.90;;;;;;5030050;28;20407;-84
2021/01/22 04:57:38;;;;;;;1.97;1.10;;;21.50;50.90;;;;;;5011084;28;20463;-85
2021/01/22 05:00:05;;;;;;;2.10;1.20;;;21.50;50.90;;;;;;5030064;28;20407;-85
2021/01/22 05:02:31;;;;;;;1.53;1.07;;;21.50;50.90;;;;;;5030472;28;20411;-84
2021/01/22 05:04:58;;;;;;;1.10;0.93;;;21.50;51.00;;;;;;5028131;28;20408;-84
2021/01/22 05:07:24;;;;;;;2.00;1.13;;;21.50;50.90;;;;;;5028008;28;20760;-84
2021/01/22 05:09:57;;;;;;;2.40;1.40;;;21.50;50.90;;;;;;5025803;28;20426;-85
2021/01/22 05:12:23;;;;;;;1.30;1.07;;;21.50;51.00;;;;;;5026763;28;20447;-84
2021/01/22 05:14:48;;;;;;;1.87;1.30;;;21.40;50.90;;;;;;5026187;28;20434;-84
2021/01/22 05:17:14;;;;;;;1.67;1.10;;;21.50;50.90;;;;;;5026935;28;20403;-85
2021/01/22 05:19:42;;;;;;;1.40;1.10;;;21.50;51.00;;;;;;5026197;28;20180;-84
2021/01/22 05:22:13;;;;;;;1.20;1.00;;;21.40;50.90;;;;;;5026390;28;20176;-85
2021/01/22 05:24:39;;;;;;;1.50;1.10;;;21.40;50.90;;;;;;5027198;28;20403;-85
2021/01/22 05:27:12;;;;;;;1.73;1.17;;;21.40;50.90;;;;;;5028928;28;20415;-84
2021/01/22 05:29:45;;;;;;;1.60;1.23;;;21.40;50.90;;;;;;5030397;28;20420;-85
2021/01/22 05:32:38;;;;;;;1.60;1.03;;;21.40;50.90;;;;;;5028095;28;20454;-85
2021/01/22 05:35:04;;;;;;;1.50;1.30;;;21.50;51.00;;;;;;5027364;28;20450;-85
2021/01/22 05:37:29;;;;;;;2.63;1.10;;;21.40;50.90;;;;;;5029000;28;21015;-85
2021/01/22 05:40:09;;;;;;;1.30;1.07;;;21.50;51.00;;;;;;5027570;28;20412;-85
2021/01/22 05:42:53;;;;;;;1.47;1.00;;;21.40;50.90;;;;;;5029768;28;20686;-85
2021/01/22 05:45:39;;;;;;;1.53;0.90;;;21.50;50.90;;;;;;5027006;28;20404;-85
2021/01/22 05:48:15;;;;;;;1.60;1.10;;;21.50;51.00;;;;;;5026100;28;20439;-85
2021/01/22 05:50:46;;;;;;;1.47;1.10;;;21.40;50.90;;;;;;5024475;28;20414;-84
2021/01/22 05:53:14;;;;;;;1.87;1.00;;;21.40;50.90;;;;;;5024825;28;20965;-84
2021/01/22 05:55:40;;;;;;;1.07;0.90;;;21.40;50.90;;;;;;5025117;28;20423;-84
2021/01/22 05:58:06;;;;;;;1.23;1.00;;;21.50;51.00;;;;;;5024698;28;20451;-85
2021/01/22 06:00:32;;;;;;;1.70;1.17;;;21.50;50.90;;;;;;5026811;28;20200;-84
2021/01/22 06:02:58;;;;;;;1.43;1.10;;;21.50;51.00;;;;;;5025872;28;20427;-84
2021/01/22 06:05:26;;;;;;;1.20;0.90;;;21.50;51.00;;;;;;5026479;28;20442;-85
2021/01/22 06:08:09;;;;;;;1.70;1.27;;;21.50;51.50;;;;;;5027602;28;20243;-84
2021/01/22 06:11:00;;;;;;;3.07;1.17;;;21.60;51.00;;;;;;5029720;28;20425;-84
2021/01/22 06:13:27;;;;;;;1.33;0.90;;;21.50;50.90;;;;;;5027852;28;20470;-84
2021/01/22 06:15:59;;;;;;;1.30;0.97;;;21.60;51.00;;;;;;5030615;28;20450;-84
2021/01/22 06:18:31;;;;;;;1.33;1.10;;;21.50;51.40;;;;;;5028614;28;20465;-84
2021/01/22 06:21:14;;;;;;;1.83;1.17;;;21.60;51.00;;;;;;5032105;28;20416;-84
2021/01/22 06:23:41;;;;;;;1.50;1.20;;;21.60;50.90;;;;;;5033570;28;20465;-84
2021/01/22 06:26:08;;;;;;;2.00;1.03;;;21.60;51.00;;;;;;5031125;28;20426;-84
2021/01/22 06:28:36;;;;;;;1.43;1.00;;;21.60;51.00;;;;;;5031362;28;20414;-84
2021/01/22 06:31:04;;;;;;;1.60;1.20;;;21.60;50.90;;;;;;5030075;28;20467;-84
2021/01/22 06:33:31;;;;;;;1.30;1.10;;;21.60;50.90;;;;;;5030171;28;20463;-85
2021/01/22 06:36:09;;;;;;;1.40;1.10;;;21.70;51.00;;;;;;5029800;28;20454;-86
2021/01/22 06:42:55;;;;;;;1.67;1.20;;;21.60;50.90;;;;;;5007219;28;20435;-87
2021/01/22 06:45:42;;;;;;;2.70;1.30;;;21.90;51.10;;;;;;5008266;28;20412;-86
2021/01/22 06:48:08;;;;;;;1.40;1.10;;;21.60;50.90;;;;;;5009871;28;20420;-84
2021/01/22 06:50:40;;;;;;;1.50;1.00;;;21.60;51.10;;;;;;4995536;28;20460;-86
2021/01/22 06:54:07;;;;;;;2.07;1.00;;;21.60;51.20;;;;;;5007090;28;20611;-87
2021/01/22 06:57:04;;;;;;;1.20;1.10;;;21.60;50.90;;;;;;4942680;28;20425;-86
2021/01/22 07:07:44;;;;;;;;;;;;;;;;;;;;;
2021/01/22 07:10:36;;;;;;;1.00;0.80;;;21.60;51.00;;;;;;4872053;29;20501;-87
2021/01/22 07:17:28;;;;;;;;;;;;;;;;;;;;;
2021/01/22 07:27:33;;;;;;;1.40;1.03;;;21.60;51.00;;;;;;4755684;30;20424;-88
2021/01/22 07:30:53;;;;;;;;;;;;;;;;;;;;;
2021/01/22 07:37:12;;;;;;;1.57;0.90;;;21.70;51.10;;;;;;4772629;29;20424;-88
2021/01/22 07:40:43;;;;;;;;;;;;;;;;;;;;;
2021/01/22 07:58:18;;;;;;;;;;;;;;;;;;;;;
2021/01/22 08:01:16;;;;;;;1.20;1.10;;;21.80;51.10;;;;;;4943646;29;21060;-87
2021/01/22 08:25:09;;;;;;;;;;;;;;;;;;;;;
2021/01/22 08:28:01;;;;;;;1.00;0.77;;;21.80;51.10;;;;;;4925620;29;20521;-86
2021/01/22 08:30:27;;;;;;;1.10;0.90;;;21.90;51.20;;;;;;4965753;29;20445;-85
2021/01/22 08:32:55;;;;;;;1.50;0.83;;;21.80;51.10;;;;;;4951599;29;20462;-84
2021/01/22 08:35:27;;;;;;;2.80;0.80;;;21.80;51.10;;;;;;4967110;29;20853;-84
2021/01/22 08:37:55;;;;;;;2.97;1.20;;;21.80;51.10;;;;;;4967953;29;20762;-83
2021/01/22 08:40:21;;;;;;;1.40;0.80;;;21.80;51.10;;;;;;4949732;29;20430;-84
2021/01/22 08:43:09;;;;;;;1.07;0.87;;;21.80;51.10;;;;;;4966749;28;20457;-83
2021/01/22 08:45:36;;;;;;;1.97;0.90;;;21.80;51.10;;;;;;4937177;29;20489;-84
2021/01/22 08:48:05;;;;;;;1.13;0.90;;;21.90;51.20;;;;;;4967064;29;20775;-85
2021/01/22 08:50:34;;;;;;;1.30;0.87;;;21.80;51.10;;;;;;4959109;28;20437;-83
2021/01/22 08:53:10;;;;;;;1.17;0.90;;;21.80;51.10;;;;;;4973466;28;20469;-84
2021/01/22 08:55:36;;;;;;;1.43;0.90;;;21.80;51.00;;;;;;5019107;28;20488;-84
2021/01/22 08:58:09;;;;;;;1.37;0.80;;;21.80;51.00;;;;;;5010939;28;20415;-85
2021/01/22 09:01:00;;;;;;;1.33;1.00;;;21.80;51.00;;;;;;5023477;28;20458;-86
2021/01/22 09:03:57;;;;;;;2.00;1.30;;;21.80;51.00;;;;;;5001335;28;20491;-85
2021/01/22 09:06:47;;;;;;;1.17;0.90;;;21.80;51.00;;;;;;5011910;28;20416;-85
2021/01/22 09:09:33;;;;;;;2.43;1.33;;;21.90;51.10;;;;;;5022178;28;20416;-89
2021/01/22 09:12:09;;;;;;;1.50;1.30;;;21.80;50.90;;;;;;5022462;28;20459;-86
2021/01/22 09:15:13;;;;;;;1.40;1.10;;;21.80;51.00;;;;;;5024414;28;20416;-89
2021/01/22 09:17:50;;;;;;;1.33;1.23;;;21.90;50.90;;;;;;5004167;28;20432;-86
2021/01/22 09:20:24;;;;;;;1.93;1.27;;;22.10;51.10;;;;;;5020214;28;20463;-86
2021/01/22 09:22:54;;;;;;;1.50;1.10;;;21.80;50.90;;;;;;5020258;28;20427;-86
2021/01/22 09:25:23;;;;;;;1.97;1.23;;;21.80;51.00;;;;;;5004154;28;20535;-85
2021/01/22 09:27:50;;;;;;;1.30;1.03;;;21.90;51.00;;;;;;5020427;28;20821;-86
2021/01/22 09:30:21;;;;;;;3.37;1.20;;;21.90;51.00;;;;;;5022676;28;20420;-87
2021/01/22 09:32:50;;;;;;;1.33;0.90;;;21.90;51.00;;;;;;5025141;28;20547;-87
2021/01/22 09:35:50;;;;;;;1.50;0.90;;;21.90;50.90;;;;;;5022144;28;20443;-86
2021/01/22 09:38:19;;;;;;;3.53;1.20;;;21.90;50.80;;;;;;5005279;28;20447;-87
2021/01/22 09:51:21;;;;;;;2.13;1.27;;;21.90;50.90;;;;;;5002822;28;20418;-85
2021/01/22 09:53:47;;;;;;;2.00;1.30;;;21.80;51.10;;;;;;5024726;28;20403;-86
2021/01/22 09:56:12;;;;;;;3.70;1.27;;;21.60;51.30;;;;;;5029838;28;20199;-85
2021/01/22 09:58:38;;;;;;;2.70;1.50;;;21.90;51.00;;;;;;5030698;28;20445;-86
2021/01/22 10:01:07;;;;;;;1.93;1.20;;;21.90;51.30;;;;;;5030132;28;20172;-86
2021/01/22 10:03:35;;;;;;;1.50;1.10;;;21.80;51.10;;;;;;5029508;28;20180;-86
2021/01/22 10:23:18;;;;;;;2.47;1.20;;;21.90;51.00;;;;;;5008542;28;20384;-87
2021/01/22 10:32:34;;;;;;;1.70;1.10;;;21.90;51.10;;;;;;4969038;28;20528;-86
2021/01/22 10:35:00;;;;;;;1.80;1.20;;;21.80;51.00;;;;;;4968159;29;20480;-86
2021/01/22 10:37:26;;;;;;;1.67;1.17;;;21.90;51.40;;;;;;4952049;29;20422;-87
2021/01/22 10:39:53;;;;;;;1.53;1.00;;;21.90;51.20;;;;;;4969787;29;20446;-87
2021/01/22 10:42:21;;;;;;;1.60;1.10;;;21.90;51.10;;;;;;4968956;29;20376;-86
2021/01/22 10:44:59;;;;;;;2.47;1.20;;;21.90;51.10;;;;;;4952461;29;20437;-87
2021/01/22 10:47:32;;;;;;;1.30;0.90;;;22.00;51.50;;;;;;4952956;29;20805;-87
2021/01/22 10:49:59;;;;;;;2.47;1.40;;;21.90;51.30;;;;;;4952385;29;20457;-85
2021/01/22 10:52:25;;;;;;;1.90;1.27;;;21.90;51.20;;;;;;4954745;29;20469;-84
2021/01/22 10:54:51;;;;;;;2.17;1.30;;;21.90;51.20;;;;;;4973634;28;20452;-85
2021/01/22 10:57:17;;;;;;;2.20;1.03;;;21.90;51.10;;;;;;4973304;28;20204;-85
2021/01/22 10:59:43;;;;;;;1.80;1.10;;;22.00;51.10;;;;;;4975527;28;20265;-85
2021/01/22 11:02:10;;;;;;;1.60;1.07;;;22.00;51.20;;;;;;4975554;28;20264;-84
2021/01/22 11:04:39;;;;;;;2.13;1.07;;;22.00;50.80;;;;;;4972707;28;20177;-84
2021/01/22 11:07:08;;;;;;;2.03;1.27;;;22.00;50.90;;;;;;5032014;28;20462;-84
2021/01/22 11:09:35;;;;;;;1.77;1.00;;;22.10;51.20;;;;;;5030983;28;20546;-84
2021/01/22 11:12:05;;;;;;;1.57;1.27;;;22.10;51.10;;;;;;5028310;28;20477;-84
2021/01/22 11:14:31;;;;;;;1.50;1.07;;;22.10;50.90;;;;;;5029419;28;20407;-86
2021/01/22 11:41:04;;;;;;;1.67;1.23;;;22.10;50.90;;;;;;4913701;29;20444;-86
2021/01/22 11:43:34;;;;;;;2.00;1.00;;;22.10;51.00;;;;;;4927090;28;20398;-85
2021/01/22 12:03:50;;;;;;;1.43;1.10;;;22.20;51.00;;;;;;4910713;29;20435;-86
2021/01/22 12:06:28;;;;;;;1.63;1.07;;;22.20;51.10;;;;;;4913332;29;20504;-86
2021/01/22 12:08:54;;;;;;;1.33;1.00;;;22.20;51.10;;;;;;4930129;29;20433;-86
2021/01/22 12:11:21;;;;;;;1.57;0.90;;;22.20;51.10;;;;;;4913454;29;20435;-86
2021/01/22 12:13:50;;;;;;;1.83;1.17;;;22.30;51.10;;;;;;4930241;29;20220;-86
2021/01/22 12:16:17;;;;;;;1.10;1.00;;;22.30;51.00;;;;;;4917207;29;20427;-87
2021/01/22 12:18:42;;;;;;;1.47;1.00;;;22.20;51.00;;;;;;4929083;29;20948;-87
2021/01/22 12:21:09;;;;;;;3.40;1.00;;;22.30;51.10;;;;;;4914449;29;20432;-87
2021/01/22 12:23:41;;;;;;;2.10;1.20;;;22.30;51.00;;;;;;4915976;29;20283;-86
2021/01/22 12:26:13;;;;;;;2.00;1.13;;;22.30;51.00;;;;;;4912087;29;20491;-86
2021/01/22 12:28:43;;;;;;;2.00;1.00;;;22.30;51.00;;;;;;4916858;29;20443;-86
2021/01/22 12:31:13;;;;;;;2.63;1.33;;;22.40;51.10;;;;;;4917763;29;20420;-86
2021/01/22 12:33:39;;;;;;;1.10;0.90;;;22.40;51.10;;;;;;4936114;29;20469;-85
2021/01/22 12:36:06;;;;;;;1.70;0.90;;;22.40;51.10;;;;;;4966506;29;20406;-85
2021/01/22 12:38:32;;;;;;;1.30;0.90;;;22.40;51.00;;;;;;4975132;28;20407;-86
2021/01/22 12:41:00;;;;;;;4.20;1.33;;;22.40;51.00;;;;;;5025201;28;20423;-86
2021/01/22 12:43:26;;;;;;;1.90;0.97;;;22.40;51.00;;;;;;5026176;28;20419;-86
2021/01/22 12:45:52;;;;;;;1.43;1.10;;;22.40;51.00;;;;;;5029483;28;20444;-85
2021/01/22 12:48:18;;;;;;;1.30;0.90;;;22.40;51.10;;;;;;5047586;28;20821;-85
2021/01/22 12:50:44;;;;;;;1.57;1.03;;;22.40;51.10;;;;;;5047663;28;20222;-85
2021/01/22 12:53:10;;;;;;;1.20;0.70;;;22.40;51.00;;;;;;5046921;28;20450;-85
2021/01/22 12:55:36;;;;;;;1.53;0.93;;;22.40;51.00;;;;;;5035648;28;20426;-84
2021/01/22 12:58:02;;;;;;;3.73;1.00;;;22.40;51.10;;;;;;5032507;28;20419;-85
2021/01/22 13:00:29;;;;;;;1.43;1.03;;;22.40;51.10;;;;;;5029482;28;20176;-85
2021/01/22 13:02:55;;;;;;;1.83;1.00;;;22.40;51.00;;;;;;5030185;28;20482;-87
2021/01/22 13:05:23;;;;;;;1.50;1.07;;;22.40;51.10;;;;;;5029902;28;20176;-87
2021/01/22 13:07:49;;;;;;;1.73;0.90;;;22.40;51.10;;;;;;5026236;28;20344;-88
2021/01/22 13:10:21;;;;;;;3.27;0.90;;;22.40;51.10;;;;;;5030235;28;20415;-88
2021/01/22 13:12:52;;;;;;;1.50;0.90;;;22.50;51.10;;;;;;5026271;28;20271;-87
2021/01/22 13:15:18;;;;;;;1.43;1.03;;;22.40;51.10;;;;;;5026911;28;20499;-85
2021/01/22 13:17:43;;;;;;;1.93;0.83;;;22.40;51.10;;;;;;5028051;28;20427;-84
2021/01/22 13:20:10;;;;;;;1.60;1.03;;;22.40;51.10;;;;;;5027885;28;20490;-84
2021/01/22 13:22:36;;;;;;;1.60;1.20;;;22.40;51.10;;;;;;5027916;28;20422;-84
2021/01/22 13:25:04;;;;;;;1.33;0.70;;;22.40;51.10;;;;;;5028102;28;20423;-84
2021/01/22 13:27:30;;;;;;;1.90;0.80;;;22.40;51.10;;;;;;5027999;28;20515;-84
2021/01/22 13:29:56;;;;;;;1.10;0.80;;;22.50;51.10;;;;;;5032263;28;20423;-84
2021/01/22 13:32:23;;;;;;;2.50;1.00;;;22.50;51.20;;;;;;5032305;28;20854;-85
2021/01/22 13:34:48;;;;;;;1.77;1.00;;;22.50;51.10;;;;;;5030896;28;20423;-85
2021/01/22 13:37:15;;;;;;;3.20;1.20;;;22.50;51.20;;;;;;5034499;28;20487;-84
2021/01/22 13:39:41;;;;;;;1.40;0.87;;;22.50;51.10;;;;;;5034363;28;20177;-84
2021/01/22 13:42:07;;;;;;;2.40;0.90;;;22.50;51.20;;;;;;5032268;28;20423;-84
2021/01/22 13:47:55;;;;;;;1.20;1.03;;;22.50;51.10;;;;;;5032649;28;20163;-84
2021/01/22 13:50:23;;;;;;;1.17;0.93;;;22.50;51.20;;;;;;5035307;28;20435;-85
2021/01/22 13:52:49;;;;;;;1.23;0.93;;;22.50;51.10;;;;;;5031762;28;20890;-85
2021/01/22 13:55:15;;;;;;;1.60;0.90;;;22.40;51.10;;;;;;5029897;28;20419;-85
2021/01/22 13:57:41;;;;;;;1.00;0.80;;;22.50;51.20;;;;;;5031647;28;20168;-85
2021/01/22 14:00:07;;;;;;;1.50;0.90;;;22.50;51.10;;;;;;5029034;28;20509;-85
2021/01/22 14:02:33;;;;;;;1.80;1.20;;;22.50;51.10;;;;;;5030163;28;20172;-86
2021/01/22 14:05:01;;;;;;;1.23;0.97;;;22.50;51.20;;;;;;5032599;28;20442;-86
2021/01/22 14:07:27;;;;;;;1.43;0.80;;;22.50;51.10;;;;;;5031224;28;20276;-86
2021/01/22 14:09:53;;;;;;;1.53;0.90;;;22.50;51.10;;;;;;5032410;28;20928;-86
2021/01/22 14:12:19;;;;;;;1.17;0.90;;;22.50;51.10;;;;;;5049329;28;20469;-85
2021/01/22 14:14:44;;;;;;;1.67;0.90;;;22.50;51.10;;;;;;5053294;28;20176;-85
2021/01/22 14:17:10;;;;;;;1.60;1.10;;;22.50;51.70;;;;;;5053812;28;20172;-86
2021/01/22 14:19:36;;;;;;;0.90;0.80;;;22.50;51.20;;;;;;5053201;28;20191;-86
2021/01/22 14:22:02;;;;;;;1.40;0.87;;;22.50;51.20;;;;;;5049860;28;20176;-83
2021/01/22 14:24:33;;;;;;;1.30;1.00;;;22.50;51.20;;;;;;5052143;28;20266;-88
2021/01/22 14:26:59;;;;;;;1.70;0.90;;;22.50;51.20;;;;;;5050686;28;20412;-89
2021/01/22 14:29:25;;;;;;;1.53;1.00;;;22.50;51.20;;;;;;5048204;28;20931;-88
2021/01/22 14:31:50;;;;;;;1.37;0.80;;;22.50;51.10;;;;;;5047503;28;20457;-88
2021/01/22 14:34:16;;;;;;;1.60;1.27;;;22.50;51.20;;;;;;5048892;28;20263;-87
2021/01/22 14:36:42;;;;;;;1.10;0.77;;;22.50;51.20;;;;;;5047368;28;20210;-87
2021/01/22 14:39:08;;;;;;;1.07;0.87;;;22.50;51.20;;;;;;5047170;28;20266;-87
2021/01/22 14:41:34;;;;;;;1.10;0.70;;;22.40;51.10;;;;;;5046700;28;20407;-87
2021/01/22 14:44:01;;;;;;;1.20;0.77;;;22.40;51.10;;;;;;5047600;28;20229;-87
2021/01/22 14:46:27;;;;;;;1.13;0.83;;;22.40;51.10;;;;;;5047212;28;20176;-87
2021/01/22 14:48:53;;;;;;;1.00;0.80;;;22.40;51.10;;;;;;5048910;28;20407;-88
2021/01/22 14:51:19;;;;;;;1.33;0.80;;;22.40;51.20;;;;;;5049810;28;20172;-88
2021/01/22 14:53:45;;;;;;;1.43;1.10;;;22.40;51.20;;;;;;5034216;28;20198;-88
2021/01/22 14:56:14;;;;;;;3.33;1.17;;;22.40;51.20;;;;;;5047960;28;20411;-87
2021/01/22 14:58:39;;;;;;;1.73;0.70;;;22.40;51.20;;;;;;5051034;28;20258;-86
2021/01/22 15:01:05;;;;;;;1.17;0.77;;;22.40;51.20;;;;;;5052034;28;20402;-86
2021/01/22 15:03:34;;;;;;;2.07;0.90;;;22.40;51.20;;;;;;5050115;28;20251;-86
2021/01/22 15:06:01;;;;;;;1.57;0.90;;;22.40;51.20;;;;;;5051260;28;20195;-87
2021/01/22 15:08:27;;;;;;;2.40;0.90;;;22.30;51.20;;;;;;5049961;28;20421;-86
2021/01/22 15:10:53;;;;;;;1.97;0.93;;;22.30;51.20;;;;;;5049341;28;20990;-86
2021/01/22 15:13:19;;;;;;;2.10;0.90;;;22.30;51.20;;;;;;5049629;28;20458;-86
2021/01/22 15:15:47;;;;;;;1.83;0.83;;;22.30;51.20;;;;;;5049912;28;20425;-88
2021/01/22 15:18:19;;;;;;;1.17;0.70;;;22.30;51.20;;;;;;5048075;28;20187;-88
2021/01/22 15:20:45;;;;;;;2.53;2.33;;;22.30;51.30;;;;;;5047926;28;20497;-84
2021/01/22 15:23:10;;;;;;;1.00;0.70;;;22.30;51.30;;;;;;5049695;28;20977;-84
2021/01/22 15:25:36;;;;;;;1.00;0.80;;;22.20;51.20;;;;;;5050462;28;20175;-84
2021/01/22 15:28:02;;;;;;;1.37;1.00;;;22.30;51.30;;;;;;5048139;28;20199;-86
2021/01/22 15:30:33;;;;;;;1.50;0.80;;;22.20;51.80;;;;;;5049452;28;20407;-85
2021/01/22 15:32:59;;;;;;;2.20;0.90;;;22.30;51.30;;;;;;5049205;28;20956;-86